首页
METAR-TAF:

METAR-TAF

机场 :

Russell Municipal Airport

拉塞尔, 堪薩斯州, 美国

纬度: 38-52-22N, 经度: 098-48-47W, 海拔: 567米

当前天气观测

该预报发布于42分钟前的14:53 UTC
风速14节,风向南转西南
温度 33°C
湿度 41%
气压 1011 hPa
能見度: 16.1公里
天空无云

METAR: KRSL 241453Z AUTO 21014KT 10SM CLR 33/18 A2985 RMK AO2 SLP084 T03280178 50001

时间: 10:35 (15:35 UTC)

预报

该预报发布于4小时和13分钟前的11:22 UTC
预报有效从24日的 12点(UTC)到 25日的 12点(UTC)
风速11节,风向
能見度: 10公里
天空无云
从 24日的 1600点(UTC)
风速18节,风向南转西南,有时为27节阵风
能見度: 10公里
天空无云
从 24日的 2300点(UTC)
风速15节,风向,有时为22节阵风
能見度: 10公里
散云层高于25000英尺
从 25日的 0600点(UTC)
风速10节,风向
能見度: 10公里
散云层高于10000英尺
多云层高于20000英尺

TAF: KRSL 241122Z 2412/2512 19011KT P6SM SKC FM241600 20018G27KT P6SM SKC FM242300 18015G22KT P6SM SCT250 FM250600 19010KT P6SM SCT100 BKN200

超过4000个机场的气象观测和天气预报(METAR&TAF报告)。

可查询的气象台以黄色和红色小点在地图上表示。

将鼠标移到小点上方,可查看气象台名称。

然后点击查看天气观测和预报。

如需切换地图:点击带黑十字的绿色按钮放大地图;点击带横线的绿色按钮缩小地图;或者点击绿色箭头查看邻近地区的地图。


METAR-TAF: